Latest Weather Observations for Mount Read

IDT60801

Issued at 6:32 am EST Saturday 24 June 2017 (issued every 30 minutes, with the page automatically refreshed every 10 minutes)

About weather observations | Map of weather stations | Latest weather observations for TAS | Other Formats
Station Details ID: 097085 Name: MOUNT READ Lat: -41.84 Lon: 145.54 Height: 1119.5 m
Data from the previous 72 hours. | See also: Recent months at Mount Read
Date/Time
EST
Temp
°C
App
Temp
°C
Dew
Point
°C
Rel
Hum
%
Delta-T
°C
Wind Press
QNH
hPa
Press
MSL
hPa
Rain since
9am
mm
Dir  Spd
km/h
Gust
km/h
Spd
kts
Gust
kts
24/06:30am -2.3 -10.9 -2.3 100 0.0 SW 33 44 18 24 1007.7 1009.4 14.2
24/06:00am -2.5 -11.5 -2.5 100 0.0 SW 35 50 19 27 1007.5 1009.2 14.2
24/05:30am -2.2 -10.2 -2.2 100 0.0 WSW 30 43 16 23 1007.5 1009.2 14.2
24/05:00am -2.3 -11.6 -2.3 100 0.0 WSW 37 52 20 28 1007.4 1009.1 14.2
24/04:30am -2.6 -12.7 -2.6 100 0.0 SW 41 52 22 28 1007.2 1008.8 14.2
24/04:00am -2.4 -12.9 -2.4 100 0.0 SW 43 57 23 31 1007.0 1008.6 14.2
24/03:35am -2.5 -11.9 -2.5 100 0.0 SW 37 59 20 32 1006.6 1008.3 14.2
24/03:30am -2.5 -11.5 -2.5 100 0.0 SW 35 46 19 25 1006.7 1008.4 14.2
24/03:00am -2.9 -12.7 -2.9 100 0.0 SW 39 54 21 29 1006.7 1008.4 14.2
24/02:30am -2.9 -13.1 -2.9 100 0.0 WSW 41 52 22 28 1006.5 1008.1 14.2
24/02:00am -3.0 -13.2 -3.0 100 0.0 WSW 41 52 22 28 1006.2 1007.8 14.2
24/01:30am -3.2 -12.6 -3.2 100 0.0 SW 37 46 20 25 1006.1 1007.7 14.2
24/01:00am -3.4 -12.9 -3.4 100 0.0 SW 37 50 20 27 1005.7 1007.3 14.2
24/12:38am -2.8 -12.6 -2.8 100 0.0 SW 39 59 21 32 1005.6 1007.2 14.2
24/12:30am -3.0 -13.7 -3.0 100 0.0 SW 44 59 24 32 1005.4 1007.0 14.2
24/12:13am -3.4 -14.0 -3.4 100 0.0 SW 43 63 23 34 1005.3 1006.9 14.2
24/12:00am -3.3 -15.2 -3.3 100 0.0 SW 50 67 27 36 1005.1 1006.7 14.2
 
Date/Time
EST
Temp
°C
App
Temp
°C
Dew
Point
°C
Rel
Hum
%
Delta-T
°C
Wind Press
QNH
hPa
Press
MSL
hPa
Rain since
9am
mm
Dir  Spd
km/h
Gust
km/h
Spd
kts
Gust
kts
23/11:36pm -2.6 -13.3 -2.6 100 0.0 SW 44 67 24 36 1005.0 1006.5 14.2
23/11:30pm -2.4 -12.5 -2.4 100 0.0 SSW 41 57 22 31 1005.2 1006.8 14.2
23/11:00pm -2.1 -13.9 -2.1 100 0.0 SSW 50 69 27 37 1004.6 1006.2 14.2
23/10:31pm -1.8 -13.2 -1.8 100 0.0 SW 48 67 26 36 1004.3 1005.9 14.2
23/10:30pm -1.9 -13.6 -1.9 100 0.0 SW 50 67 27 36 1004.3 1005.9 14.2
23/10:00pm -2.1 -14.3 -2.1 100 0.0 SW 52 70 28 38 1004.3 1005.9 14.2
23/09:37pm -1.9 -13.6 -1.9 100 0.0 SW 50 74 27 40 1003.7 1005.3 14.2
23/09:30pm -1.8 -13.5 -1.8 100 0.0 SW 50 65 27 35 1004.0 1005.5 14.2
23/09:00pm -1.9 -13.6 -1.9 100 0.0 SW 50 74 27 40 1003.6 1005.2 14.2
23/08:39pm -2.0 -13.4 -2.0 100 0.0 WSW 48 70 26 38 1003.6 1005.2 14.2
23/08:30pm -2.2 -14.0 -2.2 100 0.0 SW 50 67 27 36 1003.7 1005.3 14.2
23/08:21pm -2.5 -13.9 -2.5 100 0.0 SW 48 67 26 36 1003.7 1005.3 14.2
23/08:00pm -1.9 -15.0 -1.9 100 0.0 SW 57 72 31 39 1003.5 1005.1 14.2
23/07:49pm -1.8 -14.3 -1.8 100 0.0 SW 54 72 29 39 1003.3 1004.8 14.2
23/07:40pm -1.9 -11.9 -1.9 100 0.0 SW 41 65 22 35 1003.6 1005.2 14.2
23/07:30pm -2.0 -11.7 -2.0 100 0.0 SW 39 50 21 27 1003.7 1005.3 14.2
23/07:00pm -1.6 -12.9 -1.6 100 0.0 SW 48 61 26 33 1003.4 1004.9 14.2
23/06:30pm -1.4 -12.7 -1.4 100 0.0 SW 48 67 26 36 1003.3 1004.8 14.2
23/06:08pm -1.1 -12.4 -1.1 100 0.0 WSW 48 67 26 36 1003.0 1004.5 14.2
23/06:00pm -1.2 -13.2 -1.2 100 0.0 WSW 52 70 28 38 1002.7 1004.3 14.2
23/05:30pm -0.7 -13.4 -0.7 100 0.0 SW 56 74 30 40 1002.2 1003.7 14.2
23/05:07pm -0.4 -13.3 -0.4 100 0.0 SW 57 78 31 42 1001.9 1003.5 14.2
23/05:00pm -0.3 -13.5 -0.3 100 0.0 SW 59 76 32 41 1001.7 1003.2 14.2
23/04:41pm 0.4 -11.8 0.4 100 0.0 SW 54 76 29 41 1001.7 1003.2 14.0
23/04:30pm 1.0 -12.4 1.0 100 0.0 SW 61 74 33 40 1001.8 1003.3 13.4
23/04:03pm 2.1 -9.1 2.1 100 0.0 WSW 50 70 27 38 1002.1 1003.6 11.4
23/04:00pm 2.0 -9.6 2.0 100 0.0 WSW 52 70 28 38 1002.2 1003.7 11.4
23/03:55pm 2.2 -8.9 2.2 100 0.0 W 50 70 27 38 1001.8 1003.3 11.2
23/03:30pm 2.7 -5.1 2.7 100 0.0 W 33 56 18 30 1002.4 1003.9 9.6
23/03:00pm 2.5 -9.3 2.5 100 0.0 W 54 76 29 41 1002.4 1003.9 8.4
23/02:30pm 2.9 -7.4 2.9 100 0.0 WNW 46 70 25 38 1002.1 1003.6 6.4
23/02:00pm 1.8 -11.1 1.8 100 0.0 WNW 59 100 32 54 1002.3 1003.8 3.4
23/01:53pm 3.6 -6.5 3.6 100 0.0 NW 46 82 25 44 1002.1 1003.6 1.6
23/01:30pm 3.9 -5.8 3.9 100 0.0 NNW 44 76 24 41 1002.6 1004.1 1.0
23/01:00pm 3.7 -3.9 3.7 100 0.0 NNW 33 72 18 39 1003.6 1005.2 1.0
23/12:30pm 4.0 -4.7 4.0 100 0.0 NW 39 80 21 43 1004.5 1006.1 1.0
23/12:00pm 4.0 -5.7 4.0 100 0.0 NNW 44 80 24 43 1005.2 1006.8 1.0
23/11:53am 3.7 -6.8 3.7 100 0.0 NW 48 89 26 48 1005.0 1006.5 1.0
23/11:50am 3.8 -6.3 3.8 100 0.0 NW 46 89 25 48 1005.0 1006.5 1.0
23/11:30am 3.8 -5.3 3.8 100 0.0 NNW 41 69 22 37 1005.7 1007.3 0.8
23/11:00am 3.5 -5.7 3.5 100 0.0 NNW 41 70 22 38 1006.1 1007.7 0.8
23/10:30am 3.4 -6.4 3.4 100 0.0 NNW 44 76 24 41 1006.4 1008.0 0.8
23/10:00am 3.1 -6.2 3.1 100 0.0 NNW 41 65 22 35 1007.3 1009.0 0.6
23/09:30am 3.2 -6.6 3.2 100 0.0 NNW 44 72 24 39 1007.5 1009.2 0.4
23/09:00am 3.6 -6.2 3.6 100 0.0 NNW 44 70 24 38 1008.2 1009.9 18.4
23/08:34am 3.8 -3.6 3.8 100 0.0 NNW 32 67 17 36 1008.2 1009.9 17.2
23/08:30am 3.7 -3.0 3.7 100 0.0 NNW 28 48 15 26 1008.2 1009.9 17.2
23/08:00am 3.3 -4.2 3.3 100 0.0 NW 32 52 17 28 1008.9 1010.6 17.0
23/07:30am 3.4 -4.7 3.4 100 0.0 NNW 35 69 19 37 1008.9 1010.6 15.2
23/07:07am 3.6 -3.1 3.6 100 0.0 NNW 28 54 15 29 1009.3 1011.0 14.2
23/07:00am 3.7 -2.6 3.7 100 0.0 NNW 26 57 14 31 1009.5 1011.2 14.2
23/06:57am 3.7 -3.0 3.7 100 0.0 NNW 28 57 15 31 1009.4 1011.1 14.2
23/06:30am 3.6 -5.2 3.6 100 0.0 NW 39 69 21 37 1009.6 1011.4 14.2
23/06:00am 3.5 -4.9 3.5 100 0.0 NW 37 65 20 35 1009.9 1011.6 14.2
23/05:51am 3.6 -4.8 3.6 100 0.0 NW 37 70 20 38 1009.9 1011.6 14.2
23/05:50am 3.5 -4.9 3.5 100 0.0 NW 37 70 20 38 1009.8 1011.5 14.2
23/05:30am 3.7 -3.4 3.7 100 0.0 NNW 30 67 16 36 1010.0 1011.7 14.2
23/05:23am 3.7 -4.7 3.7 100 0.0 NW 37 74 20 40 1009.9 1011.6 14.0
23/05:22am 3.7 -4.7 3.7 100 0.0 NW 37 74 20 40 1010.0 1011.7 14.0
23/05:00am 3.8 -5.7 3.8 100 0.0 NW 43 74 23 40 1010.0 1011.7 13.8
23/04:30am 4.5 -3.7 4.5 100 0.0 NW 37 69 20 37 1010.4 1012.2 13.4
23/04:00am 4.4 -3.9 4.4 100 0.0 NW 37 70 20 38 1010.4 1012.2 10.0
23/03:48am 4.5 -5.8 4.5 100 0.0 NNW 48 83 26 45 1010.1 1011.8 9.8
23/03:31am 4.4 -3.5 4.4 100 0.0 N 35 57 19 31 1010.1 1011.8 9.0
23/03:30am 4.4 -3.5 4.4 100 0.0 N 35 50 19 27 1010.2 1011.9 9.0
23/03:00am 4.2 -2.8 4.2 100 0.0 NNW 30 39 16 21 1011.2 1013.0 7.6
23/02:30am 4.0 -2.6 4.0 100 0.0 NNW 28 50 15 27 1012.0 1013.8 7.4
23/02:16am 3.8 -2.9 3.8 100 0.0 NNW 28 48 15 26 1012.2 1014.0 7.2
23/02:00am 3.5 -2.5 3.5 100 0.0 NNW 24 39 13 21 1012.7 1014.5 7.0
23/01:30am 3.8 -3.8 3.8 100 0.0 NNW 33 52 18 28 1013.2 1015.0 6.4
23/01:07am 3.6 -4.1 3.6 100 0.0 NNW 33 52 18 28 1013.4 1015.3 6.4
23/01:00am 3.6 -3.9 3.6 100 0.0 NNW 32 50 17 27 1013.7 1015.5 6.4
23/12:30am 3.3 -3.8 3.3 100 0.0 NNW 30 50 16 27 1014.1 1015.9 6.2
23/12:00am 3.2 -3.6 3.2 100 0.0 NNW 28 48 15 26 1014.7 1016.5 6.2
 
Date/Time
EST
Temp
°C
App
Temp
°C
Dew
Point
°C
Rel
Hum
%
Delta-T
°C
Wind Press
QNH
hPa
Press
MSL
hPa
Rain since
9am
mm
Dir  Spd
km/h
Gust
km/h
Spd
kts
Gust
kts
22/11:49pm 3.1 -3.7 3.1 100 0.0 NW 28 48 15 26 1014.9 1016.7 6.2
22/11:30pm 3.1 -4.1 3.1 100 0.0 NNW 30 44 16 24 1015.0 1016.9 6.0
22/11:00pm 2.9 -4.3 2.9 100 0.0 NNW 30 50 16 27 1015.1 1017.0 5.8
22/10:57pm 2.8 -4.4 2.8 100 0.0 NNW 30 50 16 27 1015.1 1017.0 5.6
22/10:30pm 2.3 -4.3 2.3 100 0.0 NNW 26 35 14 19 1015.4 1017.3 5.2
22/10:00pm 2.1 -4.5 2.1 100 0.0 NNW 26 39 14 21 1015.9 1017.8 4.8
22/09:30pm 2.0 -5.4 2.0 100 0.0 NNW 30 43 16 23 1016.1 1018.0 4.2
22/09:00pm 1.9 -4.7 1.9 100 0.0 NNW 26 37 14 20 1016.2 1018.1 3.8
22/08:30pm 1.9 -4.3 1.9 100 0.0 NNW 24 33 13 18 1016.7 1018.6 3.6
22/08:00pm 1.8 -4.1 1.8 100 0.0 NNW 22 28 12 15 1016.9 1018.8 3.4
22/07:30pm 1.7 -4.6 1.7 100 0.0 NNW 24 33 13 18 1017.0 1018.9 3.4
22/07:00pm 1.3 -4.7 1.3 100 0.0 NNW 22 30 12 16 1017.1 1019.0 3.0
22/06:30pm 1.3 -5.0 1.3 100 0.0 NNW 24 33 13 18 1017.3 1019.3 2.6
22/06:00pm 1.3 -5.0 1.3 100 0.0 NNW 24 35 13 19 1017.4 1019.4 2.4
22/05:30pm 1.2 -5.9 1.2 100 0.0 NNW 28 43 15 23 1017.7 1019.6 2.4
22/05:03pm 1.3 -6.6 1.3 100 0.0 NNW 32 56 17 30 1017.9 1019.8 2.2
22/05:00pm 1.3 -6.2 1.3 100 0.0 NNW 30 43 16 23 1018.1 1020.1 2.2
22/04:30pm 1.2 -6.3 1.2 100 0.0 NNW 30 43 16 23 1018.3 1020.3 1.0
22/04:00pm 1.1 -6.4 1.1 100 0.0 NNW 30 37 16 20 1018.3 1020.3 0.6
22/03:30pm 1.0 -7.9 1.0 100 0.0 NNW 37 46 20 25 1018.2 1020.2 0.4
22/03:00pm 0.8 -7.1 0.8 100 0.0 N 32 37 17 20 1018.7 1020.6 0.4
22/02:30pm 0.7 -7.4 0.7 100 0.0 N 33 44 18 24 1018.8 1020.8 0.4
22/02:00pm 0.4 -8.2 0.4 100 0.0 N 35 44 19 24 1019.0 1021.0 0.4
22/01:30pm 0.3 -7.9 0.3 100 0.0 N 33 43 18 23 1019.6 1021.6 0.4
22/01:00pm 0.2 -7.8 0.2 100 0.0 N 32 43 17 23 1020.1 1022.1 0.4
22/12:30pm 0.1 -8.1 0.1 100 0.0 N 33 43 18 23 1020.7 1022.7 0.2
22/12:00pm -0.1 -8.2 -0.1 100 0.0 NNW 32 43 17 23 1021.1 1023.2 0.2
22/11:30am -0.6 -8.0 -0.6 100 0.0 N 28 35 15 19 1021.6 1023.6 0.2
22/11:00am -0.9 -8.3 -0.9 100 0.0 N 28 35 15 19 1021.9 1024.0 0.2
22/10:30am -1.3 -8.4 -1.3 100 0.0 N 26 35 14 19 1022.2 1024.3 0.0
22/10:00am -1.5 -8.3 -1.5 100 0.0 N 24 33 13 18 1022.4 1024.4 0.0
22/09:30am -1.6 -8.7 -1.6 100 0.0 N 26 32 14 17 1022.5 1024.5 0.0
22/09:00am -1.5 -9.4 -1.5 100 0.0 N 30 35 16 19 1022.5 1024.5 3.6
22/08:30am -2.0 -9.2 -2.1 99 -0.1 N 26 30 14 16 1022.2 1024.3 3.6
22/08:00am -1.9 -8.7 -2.0 99 -0.1 N 24 28 13 15 1022.6 1024.7 3.6
22/07:30am -1.9 -8.7 -2.0 99 -0.1 N 24 28 13 15 1022.8 1024.9 3.6
22/07:00am -2.0 -7.5 -2.1 99 -0.1 N 17 19 9 10 1023.1 1025.2 3.6
22/06:30am -2.0 -8.1 -2.1 99 -0.1 NNW 20 22 11 12 1023.1 1025.2 3.6
22/06:00am -2.1 -8.2 -2.2 99 -0.1 N 20 20 11 11 1023.1 1025.2 3.6
22/05:30am -2.0 -8.1 -2.1 99 -0.1 N 20 24 11 13 1023.4 1025.5 3.6
22/05:00am -1.8 -7.7 -1.9 99 -0.1 N 19 24 10 13 1023.4 1025.5 3.6
22/04:30am -1.6 -7.6 -1.7 99 0.0 N 20 28 11 15 1023.4 1025.5 3.6
22/04:00am -1.5 -7.3 -1.6 99 0.0 N 19 24 10 13 1023.6 1025.7 3.6
22/03:30am -1.6 -7.4 -1.7 99 0.0 N 19 24 10 13 1023.8 1025.9 3.6
22/03:00am -1.4 -7.2 -1.5 99 0.0 N 19 26 10 14 1024.0 1026.1 3.6
22/02:30am -1.3 -7.3 -1.4 99 0.0 SW 20 28 11 15 1024.1 1026.3 3.6
22/02:00am -1.5 -7.3 -1.6 99 0.0 SSW 19 22 10 12 1024.2 1026.4 3.6
22/01:30am -1.5 -6.9 -1.5 100 0.0 SSW 17 22 9 12 1024.4 1026.5 3.6
22/01:00am -1.6 -7.0 -1.6 100 0.0 SSW 17 17 9 9 1024.6 1026.7 3.6
22/12:30am -1.6 -7.4 -1.6 100 0.0 SSW 19 19 10 10 1024.7 1026.8 3.6
22/12:00am -1.6 -6.3 -1.6 100 0.0 SSW 13 15 7 8 1025.3 1027.4 3.6
 
Date/Time
EST
Temp
°C
App
Temp
°C
Dew
Point
°C
Rel
Hum
%
Delta-T
°C
Wind Press
QNH
hPa
Press
MSL
hPa
Rain since
9am
mm
Dir  Spd
km/h
Gust
km/h
Spd
kts
Gust
kts
21/11:30pm -1.7 -6.4 -1.7 100 0.0 SSW 13 13 7 7 1025.4 1027.5 3.6
21/11:00pm -1.8 -4.0 -1.8 100 0.0 CALM 0 0 0 0 1025.4 1027.5 3.6
21/10:30pm -2.1 -4.4 -2.1 100 0.0 CALM 0 0 0 0 1025.6 1027.7 3.6
21/10:00pm -2.3 -4.6 -2.3 100 0.0 CALM 0 0 0 0 1025.8 1028.0 3.6
21/09:30pm -2.3 -4.6 -2.3 100 0.0 CALM 0 0 0 0 1025.6 1027.7 3.6
21/09:00pm -2.3 -5.4 -2.3 100 0.0 SSW 4 7 2 4 1025.7 1027.9 3.6
21/08:30pm -2.0 -5.6 -2.0 100 0.0 SSW 7 11 4 6 1025.7 1027.9 3.6
21/08:00pm -1.9 -5.5 -1.9 100 0.0 SSW 7 7 4 4 1025.8 1028.0 3.6
21/07:30pm -1.7 -5.6 -1.7 100 0.0 SSW 9 9 5 5 1025.8 1028.0 3.6
21/07:00pm -2.0 -5.6 -2.0 100 0.0 SSW 7 9 4 5 1025.6 1027.7 3.6
21/06:30pm -1.5 -5.8 -1.5 100 0.0 SSW 11 13 6 7 1025.3 1027.4 3.6
21/06:00pm -1.4 -6.0 -1.4 100 0.0 SSW 13 19 7 10 1025.0 1027.2 3.6
21/05:30pm -1.2 -6.2 -1.2 100 0.0 SSW 15 17 8 9 1024.7 1026.8 3.6
21/05:00pm -1.0 -6.0 -1.0 100 0.0 SSW 15 19 8 10 1024.5 1026.6 3.6
21/04:30pm -0.9 -6.6 -0.9 100 0.0 SSW 19 24 10 13 1024.2 1026.4 3.6
21/04:00pm -0.6 -5.9 -0.6 100 0.0 SSW 17 19 9 10 1024.2 1026.4 3.6
21/03:30pm -0.5 -5.4 -0.5 100 0.0 SSW 15 20 8 11 1024.2 1026.4 3.4
21/03:00pm -0.4 -5.3 -0.4 100 0.0 SSW 15 20 8 11 1024.1 1026.3 3.4
21/02:30pm -0.3 -5.9 -0.3 100 0.0 SSW 19 24 10 13 1023.8 1025.9 3.4
21/02:00pm -0.5 -5.8 -0.5 100 0.0 SSW 17 22 9 12 1023.7 1025.8 3.4
21/01:30pm -0.5 -6.4 -0.5 100 0.0 SSW 20 24 11 13 1023.4 1025.5 3.2
21/01:00pm -0.7 -6.0 -0.7 100 0.0 SSW 17 22 9 12 1023.5 1025.6 3.0
21/12:30pm -0.6 -6.3 -0.6 100 0.0 SSW 19 26 10 14 1023.5 1025.6 3.0
21/12:00pm -0.6 -6.8 -0.6 100 0.0 SSW 22 26 12 14 1023.7 1025.8 3.0
21/11:30am -0.8 -7.5 -0.8 100 0.0 SSW 24 33 13 18 1023.6 1025.7 2.6
21/11:00am -1.0 -7.7 -1.0 100 0.0 SSW 24 32 13 17 1023.5 1025.6 1.2
21/10:30am -0.8 -8.2 -0.8 100 0.0 SSW 28 33 15 18 1023.2 1025.3 0.0
21/10:00am -0.8 -9.0 -0.8 100 0.0 SSW 32 46 17 25 1022.8 1024.9 0.0
21/09:30am -0.7 -8.1 -0.7 100 0.0 SSW 28 39 15 21 1022.7 1024.8 0.0
21/09:00am -0.7 -8.1 -0.7 100 0.0 SSW 28 35 15 19 1022.5 1024.5 27.6
21/08:30am -0.8 -9.0 -0.8 100 0.0 SSW 32 41 17 22 1022.0 1024.1 27.6
21/08:00am -0.9 -8.7 -0.9 100 0.0 SSW 30 37 16 20 1021.6 1023.6 27.6
21/07:30am -0.9 -9.7 -0.9 100 0.0 SW 35 43 19 23 1021.1 1023.2 27.6
21/07:00am -0.8 -9.2 -0.8 100 0.0 SW 33 41 18 22 1020.7 1022.7 27.6

Other Formats:

Comma delimited format used in spreadsheet applications
http://www.bom.gov.au/fwo/IDT60801/IDT60801.95952.axf

JavaScript Object Notation format (JSON) in row-major order
http://www.bom.gov.au/fwo/IDT60801/IDT60801.95952.json